Chilly, Idaho
Current Conditions -  °F | °C
As of 2:47 PM on Thursday 27 Nov 2014 (Local Time) from KSUN Reporting Station
Broken Clouds Broken Clouds  
Wind Chill: 54°   Ceiling: 10000
Heat Index: 54°   Visibility: 10mi
Dew Point: 32°   Wind: 7mph
Humidity: 44%   Direction: 270°W
Pressure: 30.16"   Gusts: NA
Location:  43.8935°N, 113.876°W
Report Text: KSUN 272147Z 27006KT 10SM BKN100 12/00 A3016
Loading
Personal Weather Stations






























Interactive Weather Map New forecast layout! Learn more

10-Day Weather Forecast

Advertisements
Track Severe Weather on mobile